This is the latest recevied weather packets stored in our database for station/object HK4K-15. If no packets are shown the sender has not sent any weather packets the latest 10 day(s).
| Time | Temp. | Humidity | Pressure | Rain* | Wind** | Luminosity | Snow |
|---|---|---|---|---|---|---|---|
| 1788328405 | 17.22° C | 96% | 1017 hPa | 0 mm | - | - | - |
| 1788327385 | 17.22° C | 97% | 1017 hPa | 0 mm | - | - | - |
| 1788326364 | 17.22° C | 98% | 1018 hPa | 0 mm | - | - | - |
| 1788325344 | 17.22° C | 10% | - | 0 mm | - | - | - |
| 1788300852 | 27.22° C | 42% | 1011 hPa | 0 mm | - | - | - |
| 1788297790 | 24.44° C | 51% | 1011 hPa | 0 mm | - | - | - |
| 1788296770 | 24.44° C | 51% | 1011 hPa | 0 mm | - | - | - |
| 1788295750 | 24.44° C | 51% | 1011 hPa | 0 mm | - | - | - |
| 1788293709 | 25° C | 51% | 1011 hPa | 0 mm | - | - | - |
| 1788292688 | 25.56° C | 51% | 1011 hPa | 0 mm | - | - | - |
| 1788290648 | 24.44° C | 53% | 1012 hPa | 0 mm | - | - | - |
| 1788289627 | 23.89° C | 55% | 1012 hPa | 0 mm | - | - | - |
| 1788287586 | 23.33° C | 58% | 1012 hPa | 0 mm | - | - | - |
| 1788285545 | 21.67° C | 65% | 1013 hPa | 0 mm | - | - | - |
| 1788283504 | 21.67° C | 67% | 1015 hPa | 0 mm | - | - | - |
| 1788282484 | 21.67° C | 68% | 1015 hPa | 0 mm | - | - | - |
| 1788280443 | 21.67° C | 70% | 1015 hPa | 0 mm | - | - | - |
| 1788278402 | 21.67° C | 70% | 1015 hPa | 0 mm | - | - | - |
| 1788276361 | 21.67° C | 71% | 1016 hPa | 0 mm | - | - | - |
| 1788275341 | 20° C | 78% | 1016 hPa | 0 mm | - | - | - |
| 1788274320 | 20° C | 78% | 1016 hPa | 0 mm | - | - | - |
| 1788273299 | 17.78° C | 88% | 1016 hPa | 0 mm | - | - | - |
| 1788272279 | 18.33° C | 88% | 1017 hPa | 0 mm | - | - | - |
| 1788271258 | 18.89° C | 87% | 1017 hPa | 0 mm | - | - | - |
| 1788270238 | 18.89° C | 86% | 1017 hPa | 0 mm | - | - | - |
* Rain latest hour (hover to see other rain measurements)
** Current wind speed in m/s (hover to see current wind gust speed)